METAR Data
IDs: Format: Raw Decoded Include TAF

Data at: 2004 UTC 26 Sep 2021

KLUM 261955Z AUTO 14006KT 10SM 22/11 A2971 RMK AO2 T02230113